sensor_id;sensor_type;location;lat;lon;timestamp;P1;durP1;ratioP1;P2;durP2;ratioP2
57401;SDS011;43226;51.110;6.998;2023-02-25T00:00:37;6.50;;;2.60;;
57401;SDS011;43226;51.110;6.998;2023-02-25T00:03:02;8.03;;;2.00;;
57401;SDS011;43226;51.110;6.998;2023-02-25T00:05:27;14.23;;;3.57;;
57401;SDS011;43226;51.110;6.998;2023-02-25T00:07:54;11.50;;;2.40;;
57401;SDS011;43226;51.110;6.998;2023-02-25T00:10:20;10.87;;;2.20;;
57401;SDS011;43226;51.110;6.998;2023-02-25T00:12:45;9.90;;;2.60;;
57401;SDS011;43226;51.110;6.998;2023-02-25T00:15:10;7.77;;;2.30;;
57401;SDS011;43226;51.110;6.998;2023-02-25T00:17:35;6.13;;;2.00;;
57401;SDS011;43226;51.110;6.998;2023-02-25T00:20:03;11.70;;;2.60;;
57401;SDS011;43226;51.110;6.998;2023-02-25T00:22:29;9.73;;;2.67;;
57401;SDS011;43226;51.110;6.998;2023-02-25T00:24:54;8.83;;;2.43;;
57401;SDS011;43226;51.110;6.998;2023-02-25T00:27:20;6.50;;;2.27;;
57401;SDS011;43226;51.110;6.998;2023-02-25T00:29:45;16.30;;;2.50;;
57401;SDS011;43226;51.110;6.998;2023-02-25T00:32:10;11.43;;;3.00;;
57401;SDS011;43226;51.110;6.998;2023-02-25T00:34:36;9.20;;;2.53;;
57401;SDS011;43226;51.110;6.998;2023-02-25T00:37:01;9.40;;;2.70;;
57401;SDS011;43226;51.110;6.998;2023-02-25T00:39:26;10.40;;;2.70;;
57401;SDS011;43226;51.110;6.998;2023-02-25T00:42:05;9.63;;;2.90;;
57401;SDS011;43226;51.110;6.998;2023-02-25T00:44:31;12.80;;;3.40;;
57401;SDS011;43226;51.110;6.998;2023-02-25T00:46:56;9.43;;;3.53;;
57401;SDS011;43226;51.110;6.998;2023-02-25T00:49:21;14.23;;;3.33;;
57401;SDS011;43226;51.110;6.998;2023-02-25T00:51:51;10.50;;;2.40;;
57401;SDS011;43226;51.110;6.998;2023-02-25T00:54:16;7.20;;;2.33;;
57401;SDS011;43226;51.110;6.998;2023-02-25T00:56:41;15.43;;;2.70;;
57401;SDS011;43226;51.110;6.998;2023-02-25T00:59:06;13.97;;;2.70;;
57401;SDS011;43226;51.110;6.998;2023-02-25T01:01:31;14.50;;;3.63;;
57401;SDS011;43226;51.110;6.998;2023-02-25T01:04:02;5.40;;;2.70;;
57401;SDS011;43226;51.110;6.998;2023-02-25T01:06:28;20.80;;;3.57;;
57401;SDS011;43226;51.110;6.998;2023-02-25T01:08:54;10.83;;;2.70;;
57401;SDS011;43226;51.110;6.998;2023-02-25T01:11:21;6.13;;;2.70;;
57401;SDS011;43226;51.110;6.998;2023-02-25T01:13:51;7.47;;;2.80;;
57401;SDS011;43226;51.110;6.998;2023-02-25T01:16:18;14.60;;;3.87;;
57401;SDS011;43226;51.110;6.998;2023-02-25T01:18:44;15.70;;;3.60;;
57401;SDS011;43226;51.110;6.998;2023-02-25T01:21:20;5.90;;;2.27;;
57401;SDS011;43226;51.110;6.998;2023-02-25T01:23:46;11.00;;;2.70;;
57401;SDS011;43226;51.110;6.998;2023-02-25T01:26:12;13.73;;;3.73;;
57401;SDS011;43226;51.110;6.998;2023-02-25T01:28:38;18.03;;;3.07;;
57401;SDS011;43226;51.110;6.998;2023-02-25T01:31:03;14.03;;;4.33;;
57401;SDS011;43226;51.110;6.998;2023-02-25T01:33:28;13.77;;;3.30;;
57401;SDS011;43226;51.110;6.998;2023-02-25T01:35:53;13.33;;;3.33;;
57401;SDS011;43226;51.110;6.998;2023-02-25T01:38:18;9.40;;;2.97;;
57401;SDS011;43226;51.110;6.998;2023-02-25T01:40:44;10.17;;;2.70;;
57401;SDS011;43226;51.110;6.998;2023-02-25T01:43:13;6.60;;;1.93;;
57401;SDS011;43226;51.110;6.998;2023-02-25T01:45:40;4.40;;;2.73;;
57401;SDS011;43226;51.110;6.998;2023-02-25T01:48:13;8.37;;;3.30;;
57401;SDS011;43226;51.110;6.998;2023-02-25T01:50:44;9.10;;;2.63;;
57401;SDS011;43226;51.110;6.998;2023-02-25T01:53:10;9.10;;;2.30;;
57401;SDS011;43226;51.110;6.998;2023-02-25T01:55:37;14.30;;;2.60;;
57401;SDS011;43226;51.110;6.998;2023-02-25T01:58:03;10.20;;;2.20;;
57401;SDS011;43226;51.110;6.998;2023-02-25T02:00:29;5.40;;;2.17;;
57401;SDS011;43226;51.110;6.998;2023-02-25T02:02:55;11.07;;;2.50;;
57401;SDS011;43226;51.110;6.998;2023-02-25T02:05:22;6.20;;;2.23;;
57401;SDS011;43226;51.110;6.998;2023-02-25T02:07:49;14.73;;;2.33;;
57401;SDS011;43226;51.110;6.998;2023-02-25T02:10:14;21.30;;;2.53;;
57401;SDS011;43226;51.110;6.998;2023-02-25T02:12:41;14.97;;;2.53;;
57401;SDS011;43226;51.110;6.998;2023-02-25T02:15:08;7.70;;;2.33;;
57401;SDS011;43226;51.110;6.998;2023-02-25T02:20:04;12.90;;;2.13;;
57401;SDS011;43226;51.110;6.998;2023-02-25T02:25:06;6.83;;;1.57;;
57401;SDS011;43226;51.110;6.998;2023-02-25T02:27:50;14.30;;;3.90;;
57401;SDS011;43226;51.110;6.998;2023-02-25T02:45:26;8.15;;;2.05;;
57401;SDS011;43226;51.110;6.998;2023-02-25T02:52:59;7.10;;;2.10;;
57401;SDS011;43226;51.110;6.998;2023-02-25T02:55:31;13.13;;;1.70;;
57401;SDS011;43226;51.110;6.998;2023-02-25T02:58:08;8.93;;;2.90;;
57401;SDS011;43226;51.110;6.998;2023-02-25T03:00:36;7.20;;;2.03;;
57401;SDS011;43226;51.110;6.998;2023-02-25T03:03:25;10.03;;;1.90;;
57401;SDS011;43226;51.110;6.998;2023-02-25T03:05:59;11.67;;;2.20;;
57401;SDS011;43226;51.110;6.998;2023-02-25T03:08:25;11.07;;;2.00;;
57401;SDS011;43226;51.110;6.998;2023-02-25T03:10:53;8.63;;;2.13;;
57401;SDS011;43226;51.110;6.998;2023-02-25T03:13:18;7.97;;;2.73;;
57401;SDS011;43226;51.110;6.998;2023-02-25T03:15:43;11.60;;;2.30;;
57401;SDS011;43226;51.110;6.998;2023-02-25T03:18:13;14.33;;;3.50;;
57401;SDS011;43226;51.110;6.998;2023-02-25T03:20:41;6.57;;;1.70;;
57401;SDS011;43226;51.110;6.998;2023-02-25T03:23:08;11.93;;;2.30;;
57401;SDS011;43226;51.110;6.998;2023-02-25T03:25:35;19.03;;;3.23;;
57401;SDS011;43226;51.110;6.998;2023-02-25T03:28:04;26.73;;;2.80;;
57401;SDS011;43226;51.110;6.998;2023-02-25T03:30:36;9.30;;;3.20;;
57401;SDS011;43226;51.110;6.998;2023-02-25T03:33:13;16.57;;;2.40;;
57401;SDS011;43226;51.110;6.998;2023-02-25T03:35:40;6.77;;;2.93;;
57401;SDS011;43226;51.110;6.998;2023-02-25T03:38:07;11.80;;;3.00;;
57401;SDS011;43226;51.110;6.998;2023-02-25T03:40:33;11.10;;;2.47;;
57401;SDS011;43226;51.110;6.998;2023-02-25T03:43:08;12.23;;;2.70;;
57401;SDS011;43226;51.110;6.998;2023-02-25T03:45:35;6.57;;;2.83;;
57401;SDS011;43226;51.110;6.998;2023-02-25T03:48:01;7.60;;;2.57;;
57401;SDS011;43226;51.110;6.998;2023-02-25T03:50:29;14.33;;;3.00;;
57401;SDS011;43226;51.110;6.998;2023-02-25T03:52:55;12.93;;;3.70;;
57401;SDS011;43226;51.110;6.998;2023-02-25T03:55:22;18.80;;;3.17;;
57401;SDS011;43226;51.110;6.998;2023-02-25T03:57:49;17.03;;;2.93;;
57401;SDS011;43226;51.110;6.998;2023-02-25T04:00:31;9.70;;;3.50;;
57401;SDS011;43226;51.110;6.998;2023-02-25T04:02:57;16.10;;;3.60;;
57401;SDS011;43226;51.110;6.998;2023-02-25T04:05:22;10.20;;;3.40;;
57401;SDS011;43226;51.110;6.998;2023-02-25T04:07:51;11.03;;;3.20;;
57401;SDS011;43226;51.110;6.998;2023-02-25T04:10:16;14.80;;;3.50;;
57401;SDS011;43226;51.110;6.998;2023-02-25T04:12:42;10.77;;;3.40;;
57401;SDS011;43226;51.110;6.998;2023-02-25T04:15:07;11.27;;;3.90;;
57401;SDS011;43226;51.110;6.998;2023-02-25T04:17:33;14.40;;;4.13;;
57401;SDS011;43226;51.110;6.998;2023-02-25T04:19:58;11.10;;;5.60;;
57401;SDS011;43226;51.110;6.998;2023-02-25T04:22:23;14.57;;;4.33;;
57401;SDS011;43226;51.110;6.998;2023-02-25T04:24:49;18.47;;;4.77;;
57401;SDS011;43226;51.110;6.998;2023-02-25T04:27:14;9.27;;;3.97;;
57401;SDS011;43226;51.110;6.998;2023-02-25T04:29:40;13.43;;;3.40;;
57401;SDS011;43226;51.110;6.998;2023-02-25T04:32:05;11.60;;;3.10;;
57401;SDS011;43226;51.110;6.998;2023-02-25T04:34:30;8.67;;;3.20;;
57401;SDS011;43226;51.110;6.998;2023-02-25T04:36:55;12.67;;;3.00;;
57401;SDS011;43226;51.110;6.998;2023-02-25T04:39:20;9.87;;;2.20;;
57401;SDS011;43226;51.110;6.998;2023-02-25T04:41:46;9.40;;;2.53;;
57401;SDS011;43226;51.110;6.998;2023-02-25T04:44:11;11.63;;;2.53;;
57401;SDS011;43226;51.110;6.998;2023-02-25T04:46:37;12.57;;;2.37;;
57401;SDS011;43226;51.110;6.998;2023-02-25T04:49:03;13.93;;;2.33;;
57401;SDS011;43226;51.110;6.998;2023-02-25T04:51:28;4.60;;;1.90;;
57401;SDS011;43226;51.110;6.998;2023-02-25T04:53:53;12.83;;;2.00;;
57401;SDS011;43226;51.110;6.998;2023-02-25T04:56:19;14.80;;;2.13;;
57401;SDS011;43226;51.110;6.998;2023-02-25T04:58:44;5.10;;;1.87;;
57401;SDS011;43226;51.110;6.998;2023-02-25T05:01:09;11.00;;;2.10;;
57401;SDS011;43226;51.110;6.998;2023-02-25T05:03:35;11.63;;;1.63;;
57401;SDS011;43226;51.110;6.998;2023-02-25T05:06:01;7.23;;;1.70;;
57401;SDS011;43226;51.110;6.998;2023-02-25T05:08:26;18.57;;;2.37;;
57401;SDS011;43226;51.110;6.998;2023-02-25T05:10:51;14.43;;;2.00;;
57401;SDS011;43226;51.110;6.998;2023-02-25T05:13:17;8.83;;;2.60;;
57401;SDS011;43226;51.110;6.998;2023-02-25T05:15:43;16.67;;;2.37;;
57401;SDS011;43226;51.110;6.998;2023-02-25T05:18:08;12.30;;;1.93;;
57401;SDS011;43226;51.110;6.998;2023-02-25T05:20:33;7.13;;;2.20;;
57401;SDS011;43226;51.110;6.998;2023-02-25T05:22:59;17.57;;;3.17;;
57401;SDS011;43226;51.110;6.998;2023-02-25T05:25:24;18.27;;;3.07;;
57401;SDS011;43226;51.110;6.998;2023-02-25T05:27:49;10.20;;;2.30;;
57401;SDS011;43226;51.110;6.998;2023-02-25T05:30:15;18.07;;;2.43;;
57401;SDS011;43226;51.110;6.998;2023-02-25T05:32:40;9.03;;;2.80;;
57401;SDS011;43226;51.110;6.998;2023-02-25T05:35:06;8.03;;;1.87;;
57401;SDS011;43226;51.110;6.998;2023-02-25T05:37:33;8.03;;;2.20;;
57401;SDS011;43226;51.110;6.998;2023-02-25T05:39:58;5.43;;;1.40;;
57401;SDS011;43226;51.110;6.998;2023-02-25T05:42:23;26.07;;;3.93;;
57401;SDS011;43226;51.110;6.998;2023-02-25T05:44:49;11.20;;;2.30;;
57401;SDS011;43226;51.110;6.998;2023-02-25T05:47:14;9.23;;;1.80;;
57401;SDS011;43226;51.110;6.998;2023-02-25T05:49:40;15.70;;;2.30;;
57401;SDS011;43226;51.110;6.998;2023-02-25T05:52:06;2.97;;;1.93;;
57401;SDS011;43226;51.110;6.998;2023-02-25T05:54:31;6.60;;;3.00;;
57401;SDS011;43226;51.110;6.998;2023-02-25T05:56:56;11.83;;;2.20;;
57401;SDS011;43226;51.110;6.998;2023-02-25T05:59:21;8.23;;;2.00;;
57401;SDS011;43226;51.110;6.998;2023-02-25T06:01:46;12.43;;;2.20;;
57401;SDS011;43226;51.110;6.998;2023-02-25T06:04:12;8.30;;;2.07;;
57401;SDS011;43226;51.110;6.998;2023-02-25T06:06:37;8.60;;;2.10;;
57401;SDS011;43226;51.110;6.998;2023-02-25T06:09:03;8.97;;;2.77;;
57401;SDS011;43226;51.110;6.998;2023-02-25T06:11:30;6.83;;;1.60;;
57401;SDS011;43226;51.110;6.998;2023-02-25T06:13:55;7.10;;;1.83;;
57401;SDS011;43226;51.110;6.998;2023-02-25T06:16:21;6.43;;;2.20;;
57401;SDS011;43226;51.110;6.998;2023-02-25T06:18:49;16.07;;;3.03;;
57401;SDS011;43226;51.110;6.998;2023-02-25T06:21:15;11.00;;;2.50;;
57401;SDS011;43226;51.110;6.998;2023-02-25T06:23:41;16.23;;;2.50;;
57401;SDS011;43226;51.110;6.998;2023-02-25T06:26:07;5.33;;;2.10;;
57401;SDS011;43226;51.110;6.998;2023-02-25T06:28:34;4.10;;;1.50;;
57401;SDS011;43226;51.110;6.998;2023-02-25T06:30:59;13.33;;;2.97;;
57401;SDS011;43226;51.110;6.998;2023-02-25T06:33:24;10.00;;;2.17;;
57401;SDS011;43226;51.110;6.998;2023-02-25T06:35:52;5.37;;;2.00;;
57401;SDS011;43226;51.110;6.998;2023-02-25T06:38:18;9.47;;;2.30;;
57401;SDS011;43226;51.110;6.998;2023-02-25T06:40:44;15.80;;;3.00;;
57401;SDS011;43226;51.110;6.998;2023-02-25T06:43:09;12.23;;;1.90;;
57401;SDS011;43226;51.110;6.998;2023-02-25T06:45:34;12.77;;;2.90;;
57401;SDS011;43226;51.110;6.998;2023-02-25T06:48:00;4.97;;;1.50;;
57401;SDS011;43226;51.110;6.998;2023-02-25T06:50:25;14.43;;;1.67;;
57401;SDS011;43226;51.110;6.998;2023-02-25T06:52:50;5.10;;;1.73;;
57401;SDS011;43226;51.110;6.998;2023-02-25T06:55:15;9.97;;;1.63;;
57401;SDS011;43226;51.110;6.998;2023-02-25T06:57:41;7.60;;;1.77;;
57401;SDS011;43226;51.110;6.998;2023-02-25T07:00:06;9.83;;;2.10;;
57401;SDS011;43226;51.110;6.998;2023-02-25T07:02:32;7.40;;;2.40;;
57401;SDS011;43226;51.110;6.998;2023-02-25T07:04:57;16.87;;;2.67;;
57401;SDS011;43226;51.110;6.998;2023-02-25T07:07:22;14.07;;;2.97;;
57401;SDS011;43226;51.110;6.998;2023-02-25T07:09:47;8.83;;;2.27;;
57401;SDS011;43226;51.110;6.998;2023-02-25T07:12:12;7.53;;;2.13;;
57401;SDS011;43226;51.110;6.998;2023-02-25T07:14:37;26.37;;;3.30;;
57401;SDS011;43226;51.110;6.998;2023-02-25T07:17:03;8.77;;;1.97;;
57401;SDS011;43226;51.110;6.998;2023-02-25T07:19:28;9.60;;;1.87;;
57401;SDS011;43226;51.110;6.998;2023-02-25T07:21:53;7.93;;;1.90;;
57401;SDS011;43226;51.110;6.998;2023-02-25T07:24:18;11.10;;;3.10;;
57401;SDS011;43226;51.110;6.998;2023-02-25T07:26:44;20.70;;;5.03;;
57401;SDS011;43226;51.110;6.998;2023-02-25T07:29:09;12.10;;;1.77;;
57401;SDS011;43226;51.110;6.998;2023-02-25T07:31:34;10.37;;;1.83;;
57401;SDS011;43226;51.110;6.998;2023-02-25T07:33:59;4.17;;;2.03;;
57401;SDS011;43226;51.110;6.998;2023-02-25T07:36:27;12.47;;;2.37;;
57401;SDS011;43226;51.110;6.998;2023-02-25T07:38:54;11.93;;;2.00;;
57401;SDS011;43226;51.110;6.998;2023-02-25T07:41:19;13.23;;;2.60;;
57401;SDS011;43226;51.110;6.998;2023-02-25T07:43:45;13.90;;;2.13;;
57401;SDS011;43226;51.110;6.998;2023-02-25T07:46:10;18.73;;;3.00;;
57401;SDS011;43226;51.110;6.998;2023-02-25T07:48:37;9.77;;;2.63;;
57401;SDS011;43226;51.110;6.998;2023-02-25T07:51:05;6.43;;;1.90;;
57401;SDS011;43226;51.110;6.998;2023-02-25T07:53:31;17.60;;;2.33;;
57401;SDS011;43226;51.110;6.998;2023-02-25T07:55:57;8.63;;;1.97;;
57401;SDS011;43226;51.110;6.998;2023-02-25T07:58:22;8.37;;;1.93;;
57401;SDS011;43226;51.110;6.998;2023-02-25T08:00:48;10.87;;;1.87;;
57401;SDS011;43226;51.110;6.998;2023-02-25T08:03:13;13.07;;;3.70;;
57401;SDS011;43226;51.110;6.998;2023-02-25T08:05:38;11.17;;;2.07;;
57401;SDS011;43226;51.110;6.998;2023-02-25T08:08:04;31.10;;;4.20;;
57401;SDS011;43226;51.110;6.998;2023-02-25T08:10:29;7.03;;;2.93;;
57401;SDS011;43226;51.110;6.998;2023-02-25T08:12:55;12.07;;;3.70;;
57401;SDS011;43226;51.110;6.998;2023-02-25T08:15:21;20.67;;;2.73;;
57401;SDS011;43226;51.110;6.998;2023-02-25T08:17:46;8.53;;;2.30;;
57401;SDS011;43226;51.110;6.998;2023-02-25T08:20:16;8.67;;;3.83;;
57401;SDS011;43226;51.110;6.998;2023-02-25T08:22:41;14.57;;;3.67;;
57401;SDS011;43226;51.110;6.998;2023-02-25T08:25:06;5.93;;;2.13;;
57401;SDS011;43226;51.110;6.998;2023-02-25T08:27:33;23.97;;;2.90;;
57401;SDS011;43226;51.110;6.998;2023-02-25T08:29:59;5.07;;;2.07;;
57401;SDS011;43226;51.110;6.998;2023-02-25T08:32:24;7.13;;;2.90;;
57401;SDS011;43226;51.110;6.998;2023-02-25T08:34:51;19.37;;;3.23;;
57401;SDS011;43226;51.110;6.998;2023-02-25T08:37:16;15.33;;;2.40;;
57401;SDS011;43226;51.110;6.998;2023-02-25T08:39:41;14.23;;;2.60;;
57401;SDS011;43226;51.110;6.998;2023-02-25T08:42:07;13.03;;;2.20;;
57401;SDS011;43226;51.110;6.998;2023-02-25T08:44:33;12.27;;;2.50;;
57401;SDS011;43226;51.110;6.998;2023-02-25T08:46:58;13.03;;;2.10;;
57401;SDS011;43226;51.110;6.998;2023-02-25T08:49:23;7.17;;;2.50;;
57401;SDS011;43226;51.110;6.998;2023-02-25T08:51:49;9.60;;;2.93;;
57401;SDS011;43226;51.110;6.998;2023-02-25T08:54:14;8.47;;;2.97;;
57401;SDS011;43226;51.110;6.998;2023-02-25T08:56:40;9.03;;;2.87;;
57401;SDS011;43226;51.110;6.998;2023-02-25T08:59:08;15.10;;;4.13;;
57401;SDS011;43226;51.110;6.998;2023-02-25T09:01:34;23.83;;;4.30;;
57401;SDS011;43226;51.110;6.998;2023-02-25T09:04:19;7.87;;;4.00;;
57401;SDS011;43226;51.110;6.998;2023-02-25T09:06:46;10.43;;;4.40;;
57401;SDS011;43226;51.110;6.998;2023-02-25T09:09:12;20.97;;;5.23;;
57401;SDS011;43226;51.110;6.998;2023-02-25T09:11:37;11.87;;;4.67;;
57401;SDS011;43226;51.110;6.998;2023-02-25T09:14:02;15.80;;;4.83;;
57401;SDS011;43226;51.110;6.998;2023-02-25T09:16:28;19.10;;;4.70;;
57401;SDS011;43226;51.110;6.998;2023-02-25T09:18:53;16.17;;;5.13;;
57401;SDS011;43226;51.110;6.998;2023-02-25T09:21:19;14.93;;;5.50;;
57401;SDS011;43226;51.110;6.998;2023-02-25T09:23:44;8.70;;;5.83;;
57401;SDS011;43226;51.110;6.998;2023-02-25T09:26:11;23.13;;;5.57;;
57401;SDS011;43226;51.110;6.998;2023-02-25T09:28:36;16.17;;;6.00;;
57401;SDS011;43226;51.110;6.998;2023-02-25T09:31:01;9.53;;;5.17;;
57401;SDS011;43226;51.110;6.998;2023-02-25T09:33:27;12.80;;;5.43;;
57401;SDS011;43226;51.110;6.998;2023-02-25T09:35:52;14.03;;;5.50;;
57401;SDS011;43226;51.110;6.998;2023-02-25T09:38:18;16.40;;;6.97;;
57401;SDS011;43226;51.110;6.998;2023-02-25T09:40:46;12.20;;;5.40;;
57401;SDS011;43226;51.110;6.998;2023-02-25T09:43:24;13.73;;;5.30;;
57401;SDS011;43226;51.110;6.998;2023-02-25T09:45:52;12.90;;;5.70;;
57401;SDS011;43226;51.110;6.998;2023-02-25T09:48:30;9.07;;;5.20;;
57401;SDS011;43226;51.110;6.998;2023-02-25T09:51:02;14.57;;;5.33;;
57401;SDS011;43226;51.110;6.998;2023-02-25T09:53:31;16.43;;;5.00;;
57401;SDS011;43226;51.110;6.998;2023-02-25T09:55:57;20.07;;;5.50;;
57401;SDS011;43226;51.110;6.998;2023-02-25T09:59:07;12.43;;;4.83;;
57401;SDS011;43226;51.110;6.998;2023-02-25T10:01:18;11.40;;;4.73;;
57401;SDS011;43226;51.110;6.998;2023-02-25T10:06:24;11.03;;;4.30;;
57401;SDS011;43226;51.110;6.998;2023-02-25T10:09:00;13.40;;;4.53;;
57401;SDS011;43226;51.110;6.998;2023-02-25T10:13:59;10.20;;;4.30;;
57401;SDS011;43226;51.110;6.998;2023-02-25T10:16:35;7.20;;;3.70;;
57401;SDS011;43226;51.110;6.998;2023-02-25T10:21:58;12.47;;;3.40;;
57401;SDS011;43226;51.110;6.998;2023-02-25T10:24:35;7.40;;;3.10;;
57401;SDS011;43226;51.110;6.998;2023-02-25T10:27:46;8.30;;;2.67;;
57401;SDS011;43226;51.110;6.998;2023-02-25T10:29:53;10.60;;;2.33;;
57401;SDS011;43226;51.110;6.998;2023-02-25T10:32:23;12.07;;;2.50;;
57401;SDS011;43226;51.110;6.998;2023-02-25T10:34:49;6.43;;;2.03;;
57401;SDS011;43226;51.110;6.998;2023-02-25T10:37:18;6.27;;;2.00;;
57401;SDS011;43226;51.110;6.998;2023-02-25T10:39:43;3.47;;;2.23;;
57401;SDS011;43226;51.110;6.998;2023-02-25T10:42:12;4.10;;;1.20;;
57401;SDS011;43226;51.110;6.998;2023-02-25T10:44:37;1.50;;;1.13;;
57401;SDS011;43226;51.110;6.998;2023-02-25T10:47:03;5.27;;;1.80;;
57401;SDS011;43226;51.110;6.998;2023-02-25T10:49:30;8.10;;;1.33;;
57401;SDS011;43226;51.110;6.998;2023-02-25T10:52:15;5.63;;;1.97;;
57401;SDS011;43226;51.110;6.998;2023-02-25T10:54:45;3.90;;;1.40;;
57401;SDS011;43226;51.110;6.998;2023-02-25T10:57:13;8.20;;;1.40;;
57401;SDS011;43226;51.110;6.998;2023-02-25T10:59:39;2.90;;;1.10;;
57401;SDS011;43226;51.110;6.998;2023-02-25T11:04:49;2.23;;;1.20;;
57401;SDS011;43226;51.110;6.998;2023-02-25T11:10:04;5.00;;;1.50;;
57401;SDS011;43226;51.110;6.998;2023-02-25T11:12:30;2.60;;;1.03;;
57401;SDS011;43226;51.110;6.998;2023-02-25T11:17:47;2.60;;;1.30;;
57401;SDS011;43226;51.110;6.998;2023-02-25T11:20:25;2.13;;;1.30;;
57401;SDS011;43226;51.110;6.998;2023-02-25T11:22:51;1.00;;;1.00;;
57401;SDS011;43226;51.110;6.998;2023-02-25T11:25:20;1.30;;;1.20;;
57401;SDS011;43226;51.110;6.998;2023-02-25T11:27:51;3.80;;;1.03;;
57401;SDS011;43226;51.110;6.998;2023-02-25T11:30:21;9.80;;;1.10;;
57401;SDS011;43226;51.110;6.998;2023-02-25T11:32:49;3.00;;;1.23;;
57401;SDS011;43226;51.110;6.998;2023-02-25T11:35:20;4.67;;;1.27;;
57401;SDS011;43226;51.110;6.998;2023-02-25T11:37:48;1.10;;;0.93;;
57401;SDS011;43226;51.110;6.998;2023-02-25T11:40:32;7.03;;;1.40;;
57401;SDS011;43226;51.110;6.998;2023-02-25T11:45:29;3.87;;;1.50;;
57401;SDS011;43226;51.110;6.998;2023-02-25T11:47:55;3.80;;;1.50;;
57401;SDS011;43226;51.110;6.998;2023-02-25T11:50:27;2.27;;;1.63;;
57401;SDS011;43226;51.110;6.998;2023-02-25T11:53:45;3.20;;;1.53;;
57401;SDS011;43226;51.110;6.998;2023-02-25T11:56:00;4.30;;;1.47;;
57401;SDS011;43226;51.110;6.998;2023-02-25T11:58:47;4.37;;;1.97;;
57401;SDS011;43226;51.110;6.998;2023-02-25T12:01:25;4.17;;;1.67;;
57401;SDS011;43226;51.110;6.998;2023-02-25T12:15:06;4.77;;;1.57;;
57401;SDS011;43226;51.110;6.998;2023-02-25T12:22:38;6.10;;;1.70;;
57401;SDS011;43226;51.110;6.998;2023-02-25T12:27:59;3.13;;;1.60;;
57401;SDS011;43226;51.110;6.998;2023-02-25T12:33:28;3.67;;;2.00;;
57401;SDS011;43226;51.110;6.998;2023-02-25T12:38:50;3.00;;;1.50;;
57401;SDS011;43226;51.110;6.998;2023-02-25T12:41:34;2.40;;;1.77;;
57401;SDS011;43226;51.110;6.998;2023-02-25T12:44:14;4.57;;;1.47;;
57401;SDS011;43226;51.110;6.998;2023-02-25T12:46:49;1.83;;;1.53;;
57401;SDS011;43226;51.110;6.998;2023-02-25T12:52:21;12.17;;;1.80;;
57401;SDS011;43226;51.110;6.998;2023-02-25T13:02:35;6.90;;;1.70;;
57401;SDS011;43226;51.110;6.998;2023-02-25T13:05:25;3.90;;;1.70;;
57401;SDS011;43226;51.110;6.998;2023-02-25T13:10:29;7.43;;;1.93;;
57401;SDS011;43226;51.110;6.998;2023-02-25T13:23:53;9.27;;;2.23;;
57401;SDS011;43226;51.110;6.998;2023-02-25T13:31:30;9.17;;;2.00;;
57401;SDS011;43226;51.110;6.998;2023-02-25T13:39:24;5.50;;;1.73;;
57401;SDS011;43226;51.110;6.998;2023-02-25T13:47:56;11.83;;;1.47;;
57401;SDS011;43226;51.110;6.998;2023-02-25T13:53:06;6.53;;;1.40;;
57401;SDS011;43226;51.110;6.998;2023-02-25T13:59:10;4.10;;;1.97;;
57401;SDS011;43226;51.110;6.998;2023-02-25T14:01:16;3.83;;;1.50;;
57401;SDS011;43226;51.110;6.998;2023-02-25T14:06:44;5.50;;;1.67;;
57401;SDS011;43226;51.110;6.998;2023-02-25T14:09:26;5.67;;;1.93;;
57401;SDS011;43226;51.110;6.998;2023-02-25T14:12:07;12.40;;;3.00;;
57401;SDS011;43226;51.110;6.998;2023-02-25T14:14:41;2.93;;;1.40;;
57401;SDS011;43226;51.110;6.998;2023-02-25T14:17:17;5.17;;;1.93;;
57401;SDS011;43226;51.110;6.998;2023-02-25T14:19:51;4.43;;;1.70;;
57401;SDS011;43226;51.110;6.998;2023-02-25T14:29:51;3.97;;;1.87;;
57401;SDS011;43226;51.110;6.998;2023-02-25T14:32:23;5.60;;;1.70;;
57401;SDS011;43226;51.110;6.998;2023-02-25T14:37:48;6.37;;;1.40;;
57401;SDS011;43226;51.110;6.998;2023-02-25T14:40:22;3.60;;;0.97;;
57401;SDS011;43226;51.110;6.998;2023-02-25T14:45:19;6.30;;;1.60;;
57401;SDS011;43226;51.110;6.998;2023-02-25T14:48:01;1.67;;;1.30;;
57401;SDS011;43226;51.110;6.998;2023-02-25T14:50:39;9.70;;;1.70;;
57401;SDS011;43226;51.110;6.998;2023-02-25T14:53:28;3.70;;;1.70;;
57401;SDS011;43226;51.110;6.998;2023-02-25T15:01:05;2.33;;;1.43;;
57401;SDS011;43226;51.110;6.998;2023-02-25T15:06:14;2.67;;;1.43;;
57401;SDS011;43226;51.110;6.998;2023-02-25T15:11:30;8.00;;;6.13;;
57401;SDS011;43226;51.110;6.998;2023-02-25T15:16:43;4.43;;;3.40;;
57401;SDS011;43226;51.110;6.998;2023-02-25T15:24:42;4.77;;;1.43;;
57401;SDS011;43226;51.110;6.998;2023-02-25T15:29:56;3.43;;;2.00;;
57401;SDS011;43226;51.110;6.998;2023-02-25T15:32:28;2.93;;;1.73;;
57401;SDS011;43226;51.110;6.998;2023-02-25T15:34:58;4.93;;;2.00;;
57401;SDS011;43226;51.110;6.998;2023-02-25T15:37:26;8.57;;;1.97;;
57401;SDS011;43226;51.110;6.998;2023-02-25T15:47:46;3.70;;;2.03;;
57401;SDS011;43226;51.110;6.998;2023-02-25T15:50:11;9.07;;;1.50;;
57401;SDS011;43226;51.110;6.998;2023-02-25T15:52:57;2.90;;;1.43;;
57401;SDS011;43226;51.110;6.998;2023-02-25T15:55:34;4.00;;;1.57;;
57401;SDS011;43226;51.110;6.998;2023-02-25T15:58:00;4.30;;;2.13;;
57401;SDS011;43226;51.110;6.998;2023-02-25T16:06:18;2.50;;;2.30;;
57401;SDS011;43226;51.110;6.998;2023-02-25T16:09:01;3.90;;;1.30;;
57401;SDS011;43226;51.110;6.998;2023-02-25T16:11:36;2.83;;;1.40;;
57401;SDS011;43226;51.110;6.998;2023-02-25T16:16:41;2.70;;;1.53;;
57401;SDS011;43226;51.110;6.998;2023-02-25T16:19:08;2.90;;;1.67;;
57401;SDS011;43226;51.110;6.998;2023-02-25T16:21:37;3.70;;;1.17;;
57401;SDS011;43226;51.110;6.998;2023-02-25T16:24:09;3.77;;;1.70;;
57401;SDS011;43226;51.110;6.998;2023-02-25T16:29:03;2.40;;;1.30;;
57401;SDS011;43226;51.110;6.998;2023-02-25T16:31:36;1.27;;;1.13;;
57401;SDS011;43226;51.110;6.998;2023-02-25T16:34:08;3.17;;;1.70;;
57401;SDS011;43226;51.110;6.998;2023-02-25T16:39:01;2.22;;;1.63;;
57401;SDS011;43226;51.110;6.998;2023-02-25T16:41:28;3.27;;;1.50;;
57401;SDS011;43226;51.110;6.998;2023-02-25T16:43:54;2.73;;;2.30;;
57401;SDS011;43226;51.110;6.998;2023-02-25T16:46:20;2.30;;;2.10;;
57401;SDS011;43226;51.110;6.998;2023-02-25T16:48:50;6.07;;;5.37;;
57401;SDS011;43226;51.110;6.998;2023-02-25T16:51:36;3.70;;;2.47;;
57401;SDS011;43226;51.110;6.998;2023-02-25T16:54:04;5.60;;;3.00;;
57401;SDS011;43226;51.110;6.998;2023-02-25T16:56:30;5.33;;;2.23;;
57401;SDS011;43226;51.110;6.998;2023-02-25T16:58:57;4.90;;;2.90;;
57401;SDS011;43226;51.110;6.998;2023-02-25T17:01:26;3.37;;;2.20;;
57401;SDS011;43226;51.110;6.998;2023-02-25T17:03:52;9.07;;;3.40;;
57401;SDS011;43226;51.110;6.998;2023-02-25T17:06:23;5.40;;;2.20;;
57401;SDS011;43226;51.110;6.998;2023-02-25T17:08:49;5.73;;;2.10;;
57401;SDS011;43226;51.110;6.998;2023-02-25T17:11:15;7.80;;;3.73;;
57401;SDS011;43226;51.110;6.998;2023-02-25T17:13:40;4.80;;;2.37;;
57401;SDS011;43226;51.110;6.998;2023-02-25T17:16:12;4.60;;;2.07;;
57401;SDS011;43226;51.110;6.998;2023-02-25T17:18:44;6.87;;;2.47;;
57401;SDS011;43226;51.110;6.998;2023-02-25T17:21:31;2.70;;;1.57;;
57401;SDS011;43226;51.110;6.998;2023-02-25T17:23:58;3.60;;;1.87;;
57401;SDS011;43226;51.110;6.998;2023-02-25T17:26:24;1.97;;;1.07;;
57401;SDS011;43226;51.110;6.998;2023-02-25T17:29:00;3.23;;;1.60;;
57401;SDS011;43226;51.110;6.998;2023-02-25T17:31:27;4.77;;;1.90;;
57401;SDS011;43226;51.110;6.998;2023-02-25T17:33:56;4.37;;;1.40;;
57401;SDS011;43226;51.110;6.998;2023-02-25T17:36:32;5.47;;;1.60;;
57401;SDS011;43226;51.110;6.998;2023-02-25T17:39:02;5.73;;;1.63;;
57401;SDS011;43226;51.110;6.998;2023-02-25T17:41:28;5.60;;;1.60;;
57401;SDS011;43226;51.110;6.998;2023-02-25T17:43:54;4.63;;;2.13;;